Terminal Aerodrome Forecast
Issued by NWS Sterling, VA

Current Version | Previous Version | Text Only | Print | Product List | Glossary Off
Versions: 1 2 3 4 5 6 7 8 9 10 11 12 13 14 15 16

419
FTUS41 KLWX 112330
TAFMRB
TAF
KMRB 112330Z 1200/1224 15004KT P6SM BKN120
     FM121300 22006KT P6SM BKN060
     FM121500 26010G18KT P6SM BKN045
     FM121800 29017G26KT P6SM BKN040
     FM122000 29018G28KT P6SM SCT040=

USA.gov is the U.S. government's official web portal to all federal, state and local government web resources and services.